Time;durP1;ratioP1;P1;durP2;ratioP2;P2;SDS_P1;SDS_P2;PMS_P1;PMS_P2;Temp;Humidity;BMP_temperature;BMP_pressure;BME280_temperature;BME280_humidity;BME280_pressure;Samples;Min_cycle;Max_cycle;Signal;HPM_P1;HPM_P2
2022/03/21 00:01:02;;;;;;;66.80;34.13;;;;;;;;;;5022424;28;20049;-62
2022/03/21 00:03:29;;;;;;;65.55;33.83;;;;;;;;;;5022883;28;20511;-62
2022/03/21 00:05:56;;;;;;;67.78;34.33;;;;;;;;;;5022035;28;20065;-63
2022/03/21 00:08:23;;;;;;;63.28;32.58;;;;;;;;;;5023656;28;20037;-63
2022/03/21 00:10:50;;;;;;;64.55;32.78;;;;;;;;;;5002912;28;20045;-62
2022/03/21 00:13:16;;;;;;;64.35;32.88;;;;;;;;;;5022974;28;20124;-62
2022/03/21 00:15:44;;;;;;;61.40;33.67;;;;;;;;;;5021532;28;20629;-63
2022/03/21 00:18:13;;;;;;;62.05;33.28;;;;;;;;;;5022980;28;20080;-62
2022/03/21 00:20:41;;;;;;;64.35;32.95;;;;;;;;;;5021992;28;20057;-63
2022/03/21 00:23:07;;;;;;;65.67;35.03;;;;;;;;;;5022958;28;20068;-63
2022/03/21 00:25:34;;;;;;;63.03;33.38;;;;;;;;;;5038473;28;20040;-63
2022/03/21 00:28:00;;;;;;;64.45;33.42;;;;;;;;;;5041999;28;20052;-63
2022/03/21 00:30:27;;;;;;;66.47;34.22;;;;;;;;;;5042177;28;20037;-62
2022/03/21 00:32:53;;;;;;;63.08;33.60;;;;;;;;;;5042421;28;20052;-63
2022/03/21 00:35:20;;;;;;;63.90;32.85;;;;;;;;;;5024544;28;20055;-62
2022/03/21 00:37:46;;;;;;;70.05;34.10;;;;;;;;;;5023083;28;20040;-62
2022/03/21 00:40:13;;;;;;;63.53;33.70;;;;;;;;;;5041392;28;20045;-62
2022/03/21 00:42:40;;;;;;;68.00;35.67;;;;;;;;;;5041396;28;20103;-62
2022/03/21 00:45:10;;;;;;;69.70;34.75;;;;;;;;;;5042315;28;20049;-62
2022/03/21 00:47:37;;;;;;;63.28;33.83;;;;;;;;;;5023301;28;20197;-62
2022/03/21 00:50:04;;;;;;;65.20;33.55;;;;;;;;;;5042381;28;20122;-62
2022/03/21 00:52:32;;;;;;;65.47;33.97;;;;;;;;;;5040601;28;20057;-63
2022/03/21 00:54:58;;;;;;;62.05;32.65;;;;;;;;;;5041525;28;20645;-63
2022/03/21 00:57:24;;;;;;;63.25;33.67;;;;;;;;;;5024058;28;20045;-63
2022/03/21 00:59:50;;;;;;;72.10;34.35;;;;;;;;;;5041578;28;20899;-63
2022/03/21 01:02:16;;;;;;;64.65;32.20;;;;;;;;;;5023723;28;20453;-63
2022/03/21 01:04:42;;;;;;;68.88;33.35;;;;;;;;;;5040871;28;20514;-63
2022/03/21 01:07:09;;;;;;;62.92;32.10;;;;;;;;;;5041298;28;20045;-62
2022/03/21 01:09:35;;;;;;;62.50;32.83;;;;;;;;;;5036487;28;20042;-62
2022/03/21 01:12:03;;;;;;;61.17;31.25;;;;;;;;;;5021911;28;20132;-62
2022/03/21 01:14:31;;;;;;;64.70;32.65;;;;;;;;;;5027963;28;20045;-62
2022/03/21 01:16:57;;;;;;;64.17;31.57;;;;;;;;;;5041826;28;20083;-62
2022/03/21 01:19:24;;;;;;;57.88;28.60;;;;;;;;;;5040433;28;20550;-62
2022/03/21 01:21:50;;;;;;;56.45;27.58;;;;;;;;;;5042011;28;20084;-62
2022/03/21 01:24:16;;;;;;;59.38;28.42;;;;;;;;;;5040443;28;20041;-62
2022/03/21 01:26:43;;;;;;;56.30;28.95;;;;;;;;;;5040725;28;20049;-62
2022/03/21 01:29:09;;;;;;;52.85;28.00;;;;;;;;;;5040924;28;20041;-62
2022/03/21 01:31:35;;;;;;;53.40;27.08;;;;;;;;;;5041287;28;20131;-62
2022/03/21 01:34:01;;;;;;;50.03;26.45;;;;;;;;;;5040504;28;20071;-62
2022/03/21 01:36:28;;;;;;;49.33;25.52;;;;;;;;;;5037402;28;20583;-62
2022/03/21 01:38:54;;;;;;;51.92;25.52;;;;;;;;;;5021925;28;20046;-62
2022/03/21 01:41:20;;;;;;;50.38;24.75;;;;;;;;;;5020514;28;20041;-62
2022/03/21 01:44:00;;;;;;;49.20;24.75;;;;;;;;;;5020859;28;20492;-62
2022/03/21 01:46:27;;;;;;;48.42;24.73;;;;;;;;;;5036200;28;20402;-62
2022/03/21 01:48:54;;;;;;;50.00;24.90;;;;;;;;;;5040605;28;20060;-62
2022/03/21 01:51:20;;;;;;;46.65;24.15;;;;;;;;;;5040789;28;20057;-62
2022/03/21 01:56:32;;;;;;;41.08;21.98;;;;;;;;;;5021828;28;20057;-62
2022/03/21 01:58:58;;;;;;;43.35;22.80;;;;;;;;;;5039769;28;20048;-62
2022/03/21 02:01:24;;;;;;;48.38;23.27;;;;;;;;;;5041327;28;20134;-62
2022/03/21 02:03:51;;;;;;;46.75;23.63;;;;;;;;;;5029709;28;20040;-62
2022/03/21 02:06:18;;;;;;;43.60;22.35;;;;;;;;;;5023019;28;20129;-62
2022/03/21 02:08:44;;;;;;;43.42;22.48;;;;;;;;;;5046735;23;20045;-62
2022/03/21 02:11:11;;;;;;;41.58;21.10;;;;;;;;;;5018485;28;20052;-62
2022/03/21 02:13:37;;;;;;;40.00;20.25;;;;;;;;;;5020256;28;20107;-62
2022/03/21 02:16:04;;;;;;;40.40;22.35;;;;;;;;;;5002845;28;20053;-61
2022/03/21 02:18:31;;;;;;;37.50;19.63;;;;;;;;;;5020561;28;20557;-62
2022/03/21 02:20:59;;;;;;;37.22;19.55;;;;;;;;;;5019907;28;20049;-63
2022/03/21 02:23:30;;;;;;;36.97;19.60;;;;;;;;;;5020507;28;20098;-62
2022/03/21 02:25:56;;;;;;;37.45;18.42;;;;;;;;;;5039481;28;20049;-62
2022/03/21 02:28:25;;;;;;;36.00;17.95;;;;;;;;;;5040234;28;20044;-62
2022/03/21 02:30:53;;;;;;;34.05;17.45;;;;;;;;;;5040938;28;20045;-62
2022/03/21 02:33:19;;;;;;;36.25;18.52;;;;;;;;;;5028011;28;20124;-62
2022/03/21 02:35:46;;;;;;;33.15;16.10;;;;;;;;;;5020458;28;20049;-62
2022/03/21 02:38:13;;;;;;;34.10;16.38;;;;;;;;;;5019139;28;20046;-62
2022/03/21 02:40:40;;;;;;;29.98;15.10;;;;;;;;;;5019533;28;20406;-62
2022/03/21 02:43:06;;;;;;;34.70;16.42;;;;;;;;;;5019785;28;20041;-62
2022/03/21 02:45:32;;;;;;;31.17;15.23;;;;;;;;;;5002316;28;20053;-62
2022/03/21 02:47:58;;;;;;;28.60;14.55;;;;;;;;;;5020196;28;20140;-62
2022/03/21 02:50:39;;;;;;;31.35;15.65;;;;;;;;;;5039738;28;20131;-62
2022/03/21 02:53:06;;;;;;;29.08;14.23;;;;;;;;;;5038942;28;20045;-62
2022/03/21 02:55:33;;;;;;;26.88;13.50;;;;;;;;;;5039385;28;20126;-62
2022/03/21 02:57:59;;;;;;;33.58;13.90;;;;;;;;;;5039332;28;20048;-62
2022/03/21 03:00:25;;;;;;;26.70;13.52;;;;;;;;;;5039569;28;20064;-62
2022/03/21 03:02:51;;;;;;;26.45;13.32;;;;;;;;;;5040193;28;20047;-62
2022/03/21 03:05:17;;;;;;;28.33;13.65;;;;;;;;;;5024962;28;20045;-61
2022/03/21 03:07:44;;;;;;;26.45;13.90;;;;;;;;;;5019872;28;20064;-62
2022/03/21 03:10:10;;;;;;;26.15;12.95;;;;;;;;;;5018188;28;20147;-62
2022/03/21 03:12:36;;;;;;;31.65;12.32;;;;;;;;;;5036331;28;20057;-62
2022/03/21 03:15:02;;;;;;;26.75;12.90;;;;;;;;;;5038399;28;20490;-62
2022/03/21 03:17:28;;;;;;;23.13;12.10;;;;;;;;;;5039644;28;20041;-63
2022/03/21 03:19:55;;;;;;;26.23;12.02;;;;;;;;;;5038791;28;20524;-62
2022/03/21 03:22:22;;;;;;;25.27;12.60;;;;;;;;;;5041335;28;20052;-62
2022/03/21 03:24:49;;;;;;;25.20;12.32;;;;;;;;;;5044815;28;20040;-62
2022/03/21 03:27:15;;;;;;;25.10;12.95;;;;;;;;;;5045823;28;20040;-62
2022/03/21 03:29:41;;;;;;;23.58;12.05;;;;;;;;;;5028324;28;20056;-62
2022/03/21 03:32:07;;;;;;;25.67;12.23;;;;;;;;;;5044725;28;20055;-62
2022/03/21 03:34:34;;;;;;;23.48;11.65;;;;;;;;;;5045760;28;20565;-62
2022/03/21 03:37:00;;;;;;;30.83;12.90;;;;;;;;;;5045327;28;20068;-63
2022/03/21 03:39:26;;;;;;;26.90;11.77;;;;;;;;;;5045141;28;20053;-62
2022/03/21 03:41:53;;;;;;;23.80;11.07;;;;;;;;;;5045367;28;20536;-62
2022/03/21 03:44:20;;;;;;;24.70;11.18;;;;;;;;;;5028250;28;20556;-62
2022/03/21 03:46:46;;;;;;;23.50;10.73;;;;;;;;;;5026916;28;20559;-62
2022/03/21 03:49:12;;;;;;;21.77;11.25;;;;;;;;;;5025727;28;20049;-62
2022/03/21 03:51:38;;;;;;;22.50;10.82;;;;;;;;;;5026096;28;20053;-62
2022/03/21 03:54:05;;;;;;;25.15;12.07;;;;;;;;;;5025124;28;20051;-62
2022/03/21 03:56:31;;;;;;;26.30;11.25;;;;;;;;;;5025738;28;20068;-62
2022/03/21 03:58:57;;;;;;;24.67;12.40;;;;;;;;;;5025392;28;20041;-62
2022/03/21 04:01:23;;;;;;;23.63;10.85;;;;;;;;;;5026074;28;20111;-62
2022/03/21 04:03:49;;;;;;;21.75;11.23;;;;;;;;;;5025059;28;20465;-62
2022/03/21 04:06:17;;;;;;;22.40;10.95;;;;;;;;;;5041120;28;20080;-62
2022/03/21 04:08:44;;;;;;;22.02;11.48;;;;;;;;;;5044516;28;20041;-62
2022/03/21 04:11:12;;;;;;;23.83;10.35;;;;;;;;;;5045329;28;20083;-61
2022/03/21 04:13:38;;;;;;;21.42;10.90;;;;;;;;;;5045251;28;20068;-61
2022/03/21 04:16:05;;;;;;;23.15;11.23;;;;;;;;;;5045135;28;20477;-61
2022/03/21 04:18:31;;;;;;;22.00;11.70;;;;;;;;;;5045937;28;20041;-61
2022/03/21 04:20:57;;;;;;;22.65;11.02;;;;;;;;;;5045090;28;20053;-61
2022/03/21 04:23:23;;;;;;;21.23;10.38;;;;;;;;;;5045178;28;20123;-61
2022/03/21 04:25:50;;;;;;;21.33;10.43;;;;;;;;;;5035968;28;20053;-61
2022/03/21 04:28:17;;;;;;;27.92;10.75;;;;;;;;;;5025096;28;20049;-62
2022/03/21 04:30:43;;;;;;;26.08;10.77;;;;;;;;;;5025612;28;20061;-61
2022/03/21 04:33:10;;;;;;;20.45;10.65;;;;;;;;;;5006684;28;20491;-62
2022/03/21 04:35:37;;;;;;;18.60;9.88;;;;;;;;;;5036911;28;21587;-61
2022/03/21 04:38:04;;;;;;;25.52;11.73;;;;;;;;;;5042072;28;20052;-62
2022/03/21 04:40:30;;;;;;;22.85;10.75;;;;;;;;;;5041398;28;20140;-62
2022/03/21 04:42:56;;;;;;;19.00;10.50;;;;;;;;;;5041468;28;20048;-62
2022/03/21 04:45:23;;;;;;;23.35;10.50;;;;;;;;;;5042270;28;20061;-62
2022/03/21 04:47:49;;;;;;;21.73;10.63;;;;;;;;;;5041848;28;20056;-64
2022/03/21 04:50:15;;;;;;;21.92;10.15;;;;;;;;;;5041470;28;20289;-64
2022/03/21 04:52:41;;;;;;;20.25;10.50;;;;;;;;;;5024251;28;20057;-64
2022/03/21 04:55:08;;;;;;;21.35;9.43;;;;;;;;;;5040492;28;20079;-64
2022/03/21 04:57:35;;;;;;;18.95;10.13;;;;;;;;;;5041596;28;20056;-65
2022/03/21 05:00:01;;;;;;;20.75;10.18;;;;;;;;;;5041380;28;20441;-65
2022/03/21 05:02:28;;;;;;;19.08;9.70;;;;;;;;;;5041795;28;20402;-64
2022/03/21 05:04:54;;;;;;;23.98;10.25;;;;;;;;;;5041107;28;20124;-65
2022/03/21 05:07:21;;;;;;;18.95;9.20;;;;;;;;;;5042578;28;20121;-65
2022/03/21 05:09:48;;;;;;;18.98;9.25;;;;;;;;;;5040697;28;20426;-65
2022/03/21 05:12:14;;;;;;;16.80;8.75;;;;;;;;;;5041027;28;20059;-65
2022/03/21 05:14:40;;;;;;;18.33;9.07;;;;;;;;;;5041752;28;20162;-65
2022/03/21 05:17:09;;;;;;;17.35;9.80;;;;;;;;;;5040631;28;20067;-65
2022/03/21 05:19:36;;;;;;;17.15;9.55;;;;;;;;;;5041229;28;20120;-65
2022/03/21 05:22:04;;;;;;;20.75;9.80;;;;;;;;;;5040695;28;20049;-65
2022/03/21 05:32:45;;;;;;;17.90;9.13;;;;;;;;;;5040855;28;20092;-65
2022/03/21 05:37:56;;;;;;;21.63;9.00;;;;;;;;;;5024317;28;20049;-65
2022/03/21 05:40:31;;;;;;;23.63;9.32;;;;;;;;;;5025215;28;20048;-64
2022/03/21 05:42:57;;;;;;;20.08;10.13;;;;;;;;;;5036245;28;20453;-65
2022/03/21 05:45:24;;;;;;;28.40;13.07;;;;;;;;;;5021206;28;20431;-66
2022/03/21 05:50:36;;;;;;;25.30;11.35;;;;;;;;;;5029145;28;20053;-65
2022/03/21 05:53:03;;;;;;;22.20;11.13;;;;;;;;;;5020610;28;20061;-66
2022/03/21 05:55:30;;;;;;;24.13;11.20;;;;;;;;;;5024950;28;20045;-65
2022/03/21 05:57:57;;;;;;;19.08;10.55;;;;;;;;;;5023996;28;20515;-65
2022/03/21 06:00:24;;;;;;;20.33;9.90;;;;;;;;;;5024474;28;20055;-65
2022/03/21 06:02:51;;;;;;;19.33;8.75;;;;;;;;;;5003630;28;20054;-66
2022/03/21 06:05:18;;;;;;;15.75;9.13;;;;;;;;;;5024194;28;20053;-65
2022/03/21 06:07:45;;;;;;;16.75;9.50;;;;;;;;;;5020093;28;20064;-65
2022/03/21 06:10:12;;;;;;;19.63;8.50;;;;;;;;;;5002626;28;20069;-65
2022/03/21 06:12:38;;;;;;;20.33;8.45;;;;;;;;;;5020122;28;20061;-66
2022/03/21 06:15:04;;;;;;;18.52;8.57;;;;;;;;;;5042151;28;20041;-66
2022/03/21 06:17:35;;;;;;;16.92;8.35;;;;;;;;;;5032469;28;20061;-65
2022/03/21 06:20:02;;;;;;;14.82;8.20;;;;;;;;;;5019181;28;20618;-66
2022/03/21 06:22:28;;;;;;;18.45;8.55;;;;;;;;;;5020920;28;20797;-66
2022/03/21 06:24:54;;;;;;;16.55;8.63;;;;;;;;;;5019437;28;20560;-66
2022/03/21 06:27:20;;;;;;;17.77;9.18;;;;;;;;;;5036327;28;20041;-66
2022/03/21 06:29:46;;;;;;;15.23;8.93;;;;;;;;;;5039561;28;20538;-67
2022/03/21 06:32:13;;;;;;;17.67;9.18;;;;;;;;;;5037755;28;21370;-66
2022/03/21 06:34:40;;;;;;;19.60;9.45;;;;;;;;;;5019816;28;20499;-66
2022/03/21 06:37:06;;;;;;;18.63;9.23;;;;;;;;;;5021682;28;20494;-65
2022/03/21 06:39:32;;;;;;;19.70;8.50;;;;;;;;;;5036813;28;20659;-65
2022/03/21 06:41:58;;;;;;;19.23;8.30;;;;;;;;;;5027536;28;20037;-66
2022/03/21 06:44:24;;;;;;;20.55;9.18;;;;;;;;;;5029758;28;20048;-66
2022/03/21 06:46:50;;;;;;;18.75;8.73;;;;;;;;;;5026123;28;20040;-66
2022/03/21 06:49:17;;;;;;;16.48;8.98;;;;;;;;;;5025097;28;20052;-66
2022/03/21 06:51:43;;;;;;;18.73;9.80;;;;;;;;;;5019548;28;20057;-66
2022/03/21 06:54:10;;;;;;;19.58;8.95;;;;;;;;;;5020803;28;20088;-66
2022/03/21 06:56:36;;;;;;;14.45;7.20;;;;;;;;;;5039763;28;20508;-65
2022/03/21 06:59:02;;;;;;;15.25;7.63;;;;;;;;;;5039278;28;20490;-65
2022/03/21 07:01:31;;;;;;;13.95;7.28;;;;;;;;;;5039917;28;20138;-66
2022/03/21 07:03:57;;;;;;;14.52;8.10;;;;;;;;;;5038890;28;20057;-65
2022/03/21 07:06:23;;;;;;;17.67;8.20;;;;;;;;;;5040301;28;20076;-64
2022/03/21 07:08:51;;;;;;;17.30;8.65;;;;;;;;;;5038510;28;20136;-65
2022/03/21 07:11:20;;;;;;;20.58;9.95;;;;;;;;;;5021910;28;20057;-65
2022/03/21 07:13:46;;;;;;;21.02;10.65;;;;;;;;;;5037864;28;20049;-65
2022/03/21 07:16:16;;;;;;;28.45;12.05;;;;;;;;;;5021612;28;20056;-65
2022/03/21 07:18:43;;;;;;;24.40;13.00;;;;;;;;;;5038984;28;20059;-65
2022/03/21 07:21:09;;;;;;;26.02;13.13;;;;;;;;;;5039610;28;20051;-65
2022/03/21 07:23:35;;;;;;;25.58;12.65;;;;;;;;;;5038553;28;20051;-64
2022/03/21 07:26:03;;;;;;;28.33;14.75;;;;;;;;;;5039647;28;20124;-64
2022/03/21 07:28:29;;;;;;;30.08;13.73;;;;;;;;;;5038276;28;20056;-63
2022/03/21 07:30:55;;;;;;;26.75;13.15;;;;;;;;;;5039888;28;20045;-63
2022/03/21 07:33:22;;;;;;;27.20;12.77;;;;;;;;;;5039282;28;20037;-63
2022/03/21 07:35:48;;;;;;;26.88;12.50;;;;;;;;;;5039363;28;20087;-63
2022/03/21 07:38:14;;;;;;;29.60;12.38;;;;;;;;;;5037231;28;20045;-63
2022/03/21 07:40:40;;;;;;;22.98;11.90;;;;;;;;;;5019083;28;20049;-63
2022/03/21 07:43:07;;;;;;;24.83;12.52;;;;;;;;;;5018114;28;20038;-63
2022/03/21 07:48:18;;;;;;;26.38;12.50;;;;;;;;;;5019762;28;20049;-63
2022/03/21 07:50:44;;;;;;;24.38;11.68;;;;;;;;;;5018228;28;20060;-62
2022/03/21 07:53:10;;;;;;;23.20;12.18;;;;;;;;;;5017832;28;20119;-63
2022/03/21 07:55:37;;;;;;;22.77;12.45;;;;;;;;;;5018559;28;20675;-63
2022/03/21 07:58:04;;;;;;;25.13;13.27;;;;;;;;;;5038669;28;20110;-63
2022/03/21 08:00:31;;;;;;;23.95;13.00;;;;;;;;;;5021092;28;20049;-63
2022/03/21 08:02:58;;;;;;;28.38;13.48;;;;;;;;;;5038430;28;20041;-63
2022/03/21 08:05:26;;;;;;;26.33;13.97;;;;;;;;;;5039067;28;20053;-63
2022/03/21 08:07:52;;;;;;;29.95;13.82;;;;;;;;;;5038859;28;20087;-63
2022/03/21 08:10:19;;;;;;;25.77;13.00;;;;;;;;;;5039626;28;20072;-62
2022/03/21 08:12:46;;;;;;;26.55;13.70;;;;;;;;;;5043278;28;20057;-63
2022/03/21 08:15:13;;;;;;;34.97;15.40;;;;;;;;;;5011410;28;20057;-62
2022/03/21 08:17:57;;;;;;;28.35;13.68;;;;;;;;;;5023082;28;20045;-62
2022/03/21 08:20:24;;;;;;;34.30;15.52;;;;;;;;;;5039342;28;20112;-62
2022/03/21 08:22:52;;;;;;;28.05;14.32;;;;;;;;;;5042020;28;20063;-62
2022/03/21 08:25:20;;;;;;;31.13;15.07;;;;;;;;;;5041226;28;20605;-62
2022/03/21 08:27:47;;;;;;;36.13;15.55;;;;;;;;;;5042590;28;20052;-62
2022/03/21 08:30:15;;;;;;;29.33;13.98;;;;;;;;;;5041693;28;20136;-62
2022/03/21 08:32:43;;;;;;;33.08;14.55;;;;;;;;;;5042524;28;20508;-62
2022/03/21 08:35:10;;;;;;;29.15;14.68;;;;;;;;;;5041578;28;20056;-62
2022/03/21 08:37:36;;;;;;;32.13;13.50;;;;;;;;;;5008048;28;20037;-63
2022/03/21 08:40:03;;;;;;;28.83;13.60;;;;;;;;;;5041036;28;20033;-62
2022/03/21 08:42:30;;;;;;;36.05;15.10;;;;;;;;;;5042647;28;20055;-62
2022/03/21 08:44:56;;;;;;;27.73;13.52;;;;;;;;;;5022578;28;20052;-62
2022/03/21 08:47:23;;;;;;;27.05;14.80;;;;;;;;;;5023319;28;20060;-63
2022/03/21 08:49:49;;;;;;;27.67;14.00;;;;;;;;;;5021699;28;20061;-62
2022/03/21 08:52:15;;;;;;;26.15;12.25;;;;;;;;;;5022394;28;20296;-63
2022/03/21 08:54:41;;;;;;;24.40;12.90;;;;;;;;;;5020624;28;20041;-63
2022/03/21 08:57:08;;;;;;;28.15;13.52;;;;;;;;;;5022533;28;20095;-63
2022/03/21 08:59:34;;;;;;;30.45;13.25;;;;;;;;;;5020389;28;20057;-63
2022/03/21 09:02:01;;;;;;;29.42;13.48;;;;;;;;;;5004443;28;20050;-63
2022/03/21 09:04:27;;;;;;;31.77;13.95;;;;;;;;;;5021184;28;20045;-63
2022/03/21 09:06:54;;;;;;;26.67;13.88;;;;;;;;;;5022870;28;20045;-63
2022/03/21 09:09:21;;;;;;;23.75;13.52;;;;;;;;;;5021311;28;20057;-63
2022/03/21 09:11:47;;;;;;;32.85;14.25;;;;;;;;;;5021131;28;20112;-63
2022/03/21 09:14:14;;;;;;;30.05;14.40;;;;;;;;;;5021256;28;20037;-63
2022/03/21 09:16:42;;;;;;;30.00;13.73;;;;;;;;;;5021755;28;20057;-63
2022/03/21 09:19:09;;;;;;;30.40;14.30;;;;;;;;;;5021559;28;20062;-64
2022/03/21 09:21:35;;;;;;;28.05;14.00;;;;;;;;;;5021009;28;20780;-64
2022/03/21 09:24:02;;;;;;;26.52;13.02;;;;;;;;;;5020799;28;20041;-64
2022/03/21 09:26:28;;;;;;;31.08;13.65;;;;;;;;;;5020797;28;20054;-63
2022/03/21 09:29:04;;;;;;;25.33;13.07;;;;;;;;;;5020932;28;20426;-63
2022/03/21 09:31:31;;;;;;;27.10;13.93;;;;;;;;;;5020779;28;20065;-63
2022/03/21 09:33:57;;;;;;;30.65;13.57;;;;;;;;;;5036899;28;20041;-63
2022/03/21 09:36:24;;;;;;;29.63;14.27;;;;;;;;;;5041455;28;20076;-63
2022/03/21 09:38:50;;;;;;;27.73;13.68;;;;;;;;;;5035995;28;20589;-63
2022/03/21 09:41:22;;;;;;;24.85;13.48;;;;;;;;;;5041691;28;20078;-63
2022/03/21 09:43:51;;;;;;;26.33;13.30;;;;;;;;;;5038673;28;21431;-63
2022/03/21 09:46:17;;;;;;;;;;;;;;;;;;5021646;28;20129;-63
2022/03/21 09:48:47;;;;;;;26.13;14.07;;;;;;;;;;5020588;28;19929;-63
2022/03/21 09:51:13;;;;;;;25.48;14.00;;;;;;;;;;5020920;28;20073;-63
2022/03/21 09:53:40;;;;;;;26.67;14.15;;;;;;;;;;5020027;28;20119;-63
2022/03/21 09:56:08;;;;;;;29.75;14.32;;;;;;;;;;5021415;28;20132;-64
2022/03/21 09:58:35;;;;;;;31.27;14.95;;;;;;;;;;5020284;28;20053;-64
2022/03/21 10:01:01;;;;;;;29.92;14.88;;;;;;;;;;5003331;28;20136;-64
2022/03/21 10:03:28;;;;;;;29.38;15.40;;;;;;;;;;5019288;28;20052;-63
2022/03/21 10:05:54;;;;;;;29.92;15.43;;;;;;;;;;5025528;28;20718;-64
2022/03/21 10:08:22;;;;;;;28.60;15.05;;;;;;;;;;5039873;28;20047;-64
2022/03/21 10:10:52;;;;;;;29.10;15.50;;;;;;;;;;5040460;28;20125;-64
2022/03/21 10:13:19;;;;;;;29.23;14.98;;;;;;;;;;5039535;28;20048;-64
2022/03/21 10:15:45;;;;;;;34.20;15.25;;;;;;;;;;5022525;28;20049;-64
2022/03/21 10:18:13;;;;;;;29.98;15.27;;;;;;;;;;5039813;28;20521;-64
2022/03/21 10:20:40;;;;;;;31.27;15.23;;;;;;;;;;5040626;28;20063;-64
2022/03/21 10:23:19;;;;;;;28.27;14.75;;;;;;;;;;5039413;28;20399;-64
2022/03/21 10:25:46;;;;;;;34.55;15.82;;;;;;;;;;5040153;28;20045;-64
2022/03/21 10:28:32;;;;;;;33.50;16.17;;;;;;;;;;5039117;28;20060;-64
2022/03/21 10:30:59;;;;;;;35.58;17.20;;;;;;;;;;5039765;28;20473;-64
2022/03/21 10:33:25;;;;;;;34.88;16.23;;;;;;;;;;5039506;28;20131;-63
2022/03/21 10:35:52;;;;;;;31.80;17.15;;;;;;;;;;5040007;28;20072;-64
2022/03/21 10:38:38;;;;;;;33.25;16.48;;;;;;;;;;5038921;28;20045;-63
2022/03/21 10:41:06;;;;;;;30.58;16.63;;;;;;;;;;5020535;28;20045;-64
2022/03/21 10:43:32;;;;;;;;;;;;;;;;;;5039968;28;20041;-63
2022/03/21 10:45:59;;;;;;;34.45;16.20;;;;;;;;;;5039624;28;19920;-64
2022/03/21 10:48:26;;;;;;;31.65;16.60;;;;;;;;;;5029598;28;20052;-64
2022/03/21 10:50:54;;;;;;;34.92;17.27;;;;;;;;;;5019473;28;20406;-64
2022/03/21 10:53:22;;;;;;;32.40;16.35;;;;;;;;;;5018703;28;20059;-63
2022/03/21 10:55:49;;;;;;;36.30;16.95;;;;;;;;;;5019080;28;20084;-63
2022/03/21 10:58:16;;;;;;;31.52;16.05;;;;;;;;;;5018898;28;20056;-63
2022/03/21 11:00:43;;;;;;;40.83;16.40;;;;;;;;;;5018245;28;20045;-64
2022/03/21 11:03:14;;;;;;;33.97;17.25;;;;;;;;;;5019560;28;20046;-64
2022/03/21 11:05:42;;;;;;;29.70;15.90;;;;;;;;;;5039819;28;20120;-64
2022/03/21 11:08:09;;;;;;;36.15;17.83;;;;;;;;;;5038435;28;20053;-64
2022/03/21 11:10:35;;;;;;;33.35;16.63;;;;;;;;;;5038733;28;20052;-64
2022/03/21 11:13:02;;;;;;;33.25;15.88;;;;;;;;;;5039641;28;20080;-63
2022/03/21 11:15:30;;;;;;;34.80;16.25;;;;;;;;;;5038799;28;20857;-63
2022/03/21 11:17:57;;;;;;;31.88;16.30;;;;;;;;;;5039867;28;20084;-63
2022/03/21 11:20:24;;;;;;;31.05;17.10;;;;;;;;;;5039371;28;20045;-64
2022/03/21 11:22:52;;;;;;;29.08;15.45;;;;;;;;;;5040186;28;20044;-63
2022/03/21 11:25:19;;;;;;;32.97;17.27;;;;;;;;;;5038225;28;20056;-64
2022/03/21 11:27:56;;;;;;;32.78;15.38;;;;;;;;;;5038992;28;20049;-64
2022/03/21 11:30:27;;;;;;;36.95;16.33;;;;;;;;;;5039822;28;20063;-64
2022/03/21 11:33:09;;;;;;;32.67;16.80;;;;;;;;;;5039195;28;20069;-64
2022/03/21 11:35:36;;;;;;;35.05;16.48;;;;;;;;;;5038935;28;20330;-63
2022/03/21 11:38:21;;;;;;;30.95;15.88;;;;;;;;;;5038213;28;20641;-64
2022/03/21 11:40:47;;;;;;;33.17;16.70;;;;;;;;;;5038195;28;20667;-64
2022/03/21 11:43:17;;;;;;;32.58;17.15;;;;;;;;;;5039882;28;20518;-64
2022/03/21 11:45:44;;;;;;;32.70;16.63;;;;;;;;;;5041874;28;20045;-64
2022/03/21 11:48:17;;;;;;;36.17;17.42;;;;;;;;;;5043399;28;20068;-64
2022/03/21 11:50:44;;;;;;;33.97;16.45;;;;;;;;;;5042070;28;20545;-64
2022/03/21 11:53:11;;;;;;;31.20;16.73;;;;;;;;;;5042532;28;20111;-64
2022/03/21 11:55:38;;;;;;;27.95;15.00;;;;;;;;;;5042457;28;20096;-64
2022/03/21 11:58:34;;;;;;;33.45;16.50;;;;;;;;;;5043068;28;20056;-64
2022/03/21 12:01:02;;;;;;;35.47;16.23;;;;;;;;;;5043178;28;20103;-64
2022/03/21 12:03:29;;;;;;;30.98;16.35;;;;;;;;;;5017369;28;20091;-64
2022/03/21 12:05:55;;;;;;;30.67;17.13;;;;;;;;;;5022068;28;20087;-63
2022/03/21 12:08:31;;;;;;;33.42;16.20;;;;;;;;;;5023071;28;20045;-64
2022/03/21 12:10:57;;;;;;;34.20;16.77;;;;;;;;;;5038304;28;20064;-64
2022/03/21 12:13:24;;;;;;;31.90;16.27;;;;;;;;;;5042650;28;20053;-64
2022/03/21 12:15:51;;;;;;;35.15;16.85;;;;;;;;;;5032378;28;20578;-64
2022/03/21 12:18:19;;;;;;;29.33;15.25;;;;;;;;;;5042255;28;20068;-64
2022/03/21 12:20:46;;;;;;;30.40;14.95;;;;;;;;;;5036220;28;20193;-64
2022/03/21 12:23:14;;;;;;;36.20;18.65;;;;;;;;;;5028104;28;20045;-64
2022/03/21 12:25:43;;;;;;;32.13;16.55;;;;;;;;;;5034125;28;20041;-64
2022/03/21 12:28:21;;;;;;;33.63;16.65;;;;;;;;;;5036899;28;20034;-64
2022/03/21 12:30:48;;;;;;;31.23;16.85;;;;;;;;;;5019082;28;20061;-64
2022/03/21 12:33:15;;;;;;;31.60;17.70;;;;;;;;;;5027277;28;20140;-65
2022/03/21 12:35:43;;;;;;;32.13;16.67;;;;;;;;;;5029283;28;20060;-64
2022/03/21 12:38:16;;;;;;;33.45;16.65;;;;;;;;;;5026083;28;20433;-65
2022/03/21 12:40:50;;;;;;;31.55;16.30;;;;;;;;;;5030610;28;20053;-65
2022/03/21 12:43:25;;;;;;;38.88;15.50;;;;;;;;;;5028543;28;20053;-65
2022/03/21 12:45:58;;;;;;;29.52;14.30;;;;;;;;;;5028548;28;20152;-64
2022/03/21 12:48:29;;;;;;;30.35;16.48;;;;;;;;;;5033110;28;20048;-64
2022/03/21 12:50:55;;;;;;;33.13;16.48;;;;;;;;;;5006169;28;20561;-64
2022/03/21 12:53:23;;;;;;;27.83;15.55;;;;;;;;;;5024524;28;20414;-64
2022/03/21 12:56:02;;;;;;;33.97;16.67;;;;;;;;;;5015834;28;20053;-64
2022/03/21 12:58:28;;;;;;;28.30;14.82;;;;;;;;;;5021202;28;20057;-63
2022/03/21 13:00:56;;;;;;;35.05;16.42;;;;;;;;;;5018208;28;20387;-63
2022/03/21 13:03:23;;;;;;;34.03;15.27;;;;;;;;;;5019440;28;20075;-63
2022/03/21 13:11:33;;;;;;;31.65;16.17;;;;;;;;;;5015568;28;20418;-64
2022/03/21 13:14:00;;;;;;;37.75;16.42;;;;;;;;;;5030004;28;20041;-64
2022/03/21 13:16:28;;;;;;;30.60;16.23;;;;;;;;;;5022512;28;20052;-64
2022/03/21 13:18:56;;;;;;;31.07;15.90;;;;;;;;;;5029861;28;20049;-64
2022/03/21 13:21:22;;;;;;;36.30;16.48;;;;;;;;;;5023321;28;20045;-64
2022/03/21 13:23:51;;;;;;;31.15;16.02;;;;;;;;;;5024014;28;20088;-64
2022/03/21 13:26:17;;;;;;;;;;;;;;;;;;5028566;28;20061;-64
2022/03/21 13:28:44;;;;;;;29.95;16.20;;;;;;;;;;5016760;28;19932;-64
2022/03/21 13:31:15;;;;;;;34.10;15.15;;;;;;;;;;5025638;28;20053;-64
2022/03/21 13:33:50;;;;;;;26.65;14.02;;;;;;;;;;5020464;28;20610;-64
2022/03/21 13:36:19;;;;;;;29.23;15.80;;;;;;;;;;5023720;28;20042;-64
2022/03/21 13:38:45;;;;;;;29.92;15.43;;;;;;;;;;5040787;28;20060;-64
2022/03/21 13:41:13;;;;;;;33.22;16.08;;;;;;;;;;5041273;28;20052;-64
2022/03/21 13:43:40;;;;;;;37.45;15.88;;;;;;;;;;5025469;28;20050;-65
2022/03/21 13:46:06;;;;;;;27.75;15.52;;;;;;;;;;5028191;28;20261;-65
2022/03/21 13:48:40;;;;;;;48.58;16.50;;;;;;;;;;5041059;28;20037;-65
2022/03/21 13:51:08;;;;;;;33.83;15.85;;;;;;;;;;5040994;28;20045;-66
2022/03/21 13:53:39;;;;;;;23.70;15.50;;;;;;;;;;5030087;28;20052;-65
2022/03/21 13:56:05;;;;;;;32.95;16.27;;;;;;;;;;5022630;28;20045;-64
2022/03/21 13:58:34;;;;;;;31.15;15.98;;;;;;;;;;5041508;28;20052;-64
2022/03/21 14:01:00;;;;;;;;;;;;;;;;;;5041015;28;20129;-64
2022/03/21 14:03:32;;;;;;;31.30;14.68;;;;;;;;;;5040960;28;20004;-65
2022/03/21 14:05:58;;;;;;;33.10;16.10;;;;;;;;;;5040620;28;20102;-64
2022/03/21 14:08:24;;;;;;;31.25;15.50;;;;;;;;;;5015137;28;20136;-64
2022/03/21 14:10:52;;;;;;;34.58;16.15;;;;;;;;;;5031872;28;20057;-64
2022/03/21 14:13:22;;;;;;;29.73;16.80;;;;;;;;;;5024396;28;20107;-65
2022/03/21 14:15:48;;;;;;;26.80;15.25;;;;;;;;;;5020492;28;20134;-65
2022/03/21 14:18:19;;;;;;;35.13;16.15;;;;;;;;;;5040236;28;20589;-64
2022/03/21 14:20:45;;;;;;;33.22;16.83;;;;;;;;;;5039917;28;20498;-65
2022/03/21 14:23:11;;;;;;;35.42;16.75;;;;;;;;;;5032965;28;20125;-65
2022/03/21 14:28:22;;;;;;;28.60;16.23;;;;;;;;;;5037893;28;20079;-65
2022/03/21 14:30:49;;;;;;;36.97;15.90;;;;;;;;;;5033457;28;20040;-65
2022/03/21 14:33:15;;;;;;;34.50;17.80;;;;;;;;;;5031128;28;20080;-64
2022/03/21 14:35:41;;;;;;;38.55;17.20;;;;;;;;;;5016311;28;20046;-65
2022/03/21 14:38:08;;;;;;;33.83;17.88;;;;;;;;;;5036582;28;20662;-65
2022/03/21 14:40:35;;;;;;;35.92;17.15;;;;;;;;;;5029427;28;20132;-65
2022/03/21 14:43:01;;;;;;;28.25;16.27;;;;;;;;;;5036381;28;20041;-65
2022/03/21 14:45:28;;;;;;;27.83;16.48;;;;;;;;;;5030069;28;20453;-65
2022/03/21 14:47:55;;;;;;;34.90;16.67;;;;;;;;;;5032662;28;20407;-65
2022/03/21 14:50:21;;;;;;;29.75;16.52;;;;;;;;;;5035409;28;20037;-64